Time;durP1;ratioP1;P1;durP2;ratioP2;P2;SDS_P1;SDS_P2;PMS_P1;PMS_P2;Temp;Humidity;BMP_temperature;BMP_pressure;BME280_temperature;BME280_humidity;BME280_pressure;Samples;Min_cycle;Max_cycle;Signal;HPM_P1;HPM_P2
2024/02/14 00:00:30;;;;;;;17.50;8.60;;;;;;;;;;137742;1271;22196;-84
2024/02/14 00:03:52;;;;;;;18.30;8.50;;;;;;;;;;137425;1271;22253;-84
2024/02/14 00:06:53;;;;;;;14.50;8.00;;;;;;;;;;137320;1271;22291;-85
2024/02/14 00:09:54;;;;;;;20.50;7.70;;;;;;;;;;137412;1271;23235;-86
2024/02/14 00:12:55;;;;;;;15.70;8.70;;;;;;;;;;137520;1272;22528;-85
2024/02/14 00:15:57;;;;;;;18.00;8.00;;;;;;;;;;137136;1271;22422;-85
2024/02/14 00:18:58;;;;;;;17.50;8.40;;;;;;;;;;137123;1271;22463;-83
2024/02/14 00:22:02;;;;;;;18.60;8.70;;;;;;;;;;137458;1271;22559;-86
2024/02/14 00:25:03;;;;;;;13.20;7.60;;;;;;;;;;137189;1271;22435;-87
2024/02/14 00:28:07;;;;;;;15.30;8.00;;;;;;;;;;137154;1271;22230;-83
2024/02/14 00:31:08;;;;;;;18.80;8.50;;;;;;;;;;137692;1271;22332;-85
2024/02/14 00:34:12;;;;;;;13.10;7.50;;;;;;;;;;137173;1271;22281;-85
2024/02/14 00:37:14;;;;;;;;;;;;;;;;;;137389;1272;22550;-86
2024/02/14 00:40:15;;;;;;;19.90;9.80;;;;;;;;;;137581;1271;23414;-87
2024/02/14 00:43:16;;;;;;;18.80;10.10;;;;;;;;;;137110;1271;22556;-86
2024/02/14 00:46:17;;;;;;;18.60;9.90;;;;;;;;;;137120;1266;22491;-85
2024/02/14 00:49:19;;;;;;;20.80;9.80;;;;;;;;;;136881;1271;427174;-85
2024/02/14 00:52:21;;;;;;;18.90;9.70;;;;;;;;;;137487;1271;22243;-85
2024/02/14 00:55:22;;;;;;;15.50;8.70;;;;;;;;;;137400;1271;22631;-84
2024/02/14 00:58:24;;;;;;;14.20;8.40;;;;;;;;;;137157;1271;22607;-84
2024/02/14 01:01:25;;;;;;;14.40;8.00;;;;;;;;;;137549;1271;22256;-83
2024/02/14 01:04:26;;;;;;;13.20;7.80;;;;;;;;;;137341;1272;22289;-85
2024/02/14 01:07:27;;;;;;;13.40;7.70;;;;;;;;;;137115;1271;22613;-83
2024/02/14 01:10:29;;;;;;;19.90;8.20;;;;;;;;;;137323;1271;23009;-85
2024/02/14 01:13:30;;;;;;;13.40;7.30;;;;;;;;;;137237;1260;22760;-84
2024/02/14 01:16:31;;;;;;;12.40;7.20;;;;;;;;;;137101;1271;22677;-84
2024/02/14 01:19:33;;;;;;;12.40;7.20;;;;;;;;;;137668;1272;23331;-86
2024/02/14 01:22:34;;;;;;;15.90;8.00;;;;;;;;;;137265;1271;22573;-83
2024/02/14 01:25:36;;;;;;;15.60;8.10;;;;;;;;;;137222;1271;22439;-84
2024/02/14 01:28:37;;;;;;;15.10;8.00;;;;;;;;;;137215;1271;23288;-86
2024/02/14 01:31:39;;;;;;;16.00;8.20;;;;;;;;;;137225;1272;22395;-84
2024/02/14 01:34:42;;;;;;;52.50;10.60;;;;;;;;;;137309;1267;22873;-83
2024/02/14 01:37:45;;;;;;;23.30;9.50;;;;;;;;;;137253;1271;22553;-85
2024/02/14 01:40:46;;;;;;;21.10;9.90;;;;;;;;;;137681;1271;22224;-84
2024/02/14 01:43:48;;;;;;;31.00;9.40;;;;;;;;;;137496;1271;22284;-85
2024/02/14 01:46:49;;;;;;;19.20;8.60;;;;;;;;;;137077;1271;25243;-83
2024/02/14 01:49:50;;;;;;;16.00;8.00;;;;;;;;;;137639;1271;22422;-85
2024/02/14 01:52:51;;;;;;;15.30;7.60;;;;;;;;;;137062;1271;22354;-86
2024/02/14 01:55:53;;;;;;;30.30;7.60;;;;;;;;;;137077;1271;22195;-86
2024/02/14 01:58:54;;;;;;;14.90;7.50;;;;;;;;;;137555;1271;22617;-86
2024/02/14 02:01:55;;;;;;;15.40;7.90;;;;;;;;;;137438;1271;22514;-84
2024/02/14 02:04:56;;;;;;;21.60;7.60;;;;;;;;;;137269;1271;22723;-86
2024/02/14 02:07:57;;;;;;;15.90;8.40;;;;;;;;;;137602;1271;22536;-86
2024/02/14 02:10:59;;;;;;;14.90;7.40;;;;;;;;;;136859;1271;22065;-86
2024/02/14 02:14:00;;;;;;;18.30;8.00;;;;;;;;;;137385;1271;22571;-85
2024/02/14 02:17:01;;;;;;;17.30;7.90;;;;;;;;;;137307;1271;22489;-84
2024/02/14 02:20:05;;;;;;;41.70;9.00;;;;;;;;;;137093;1271;22148;-82
2024/02/14 02:23:09;;;;;;;20.40;8.30;;;;;;;;;;137367;1271;22601;-83
2024/02/14 02:26:11;;;;;;;17.30;7.90;;;;;;;;;;137606;1271;22355;-81
2024/02/14 02:29:15;;;;;;;18.90;8.70;;;;;;;;;;137173;1271;22187;-83
2024/02/14 02:32:17;;;;;;;19.20;7.60;;;;;;;;;;137132;1271;22560;-84
2024/02/14 02:35:21;;;;;;;24.30;8.50;;;;;;;;;;137270;1271;22251;-82
2024/02/14 02:38:22;;;;;;;22.70;8.40;;;;;;;;;;137157;1271;22156;-84
2024/02/14 02:41:24;;;;;;;16.90;8.10;;;;;;;;;;137140;1271;23423;-86
2024/02/14 02:44:27;;;;;;;17.90;7.80;;;;;;;;;;137630;1271;22231;-83
2024/02/14 02:47:28;;;;;;;568.70;32.30;;;;;;;;;;137145;1271;22392;-82
2024/02/14 02:50:30;;;;;;;28.60;8.70;;;;;;;;;;137192;1271;22261;-81
2024/02/14 02:53:31;;;;;;;33.70;8.70;;;;;;;;;;137596;1271;22262;-83
2024/02/14 02:56:34;;;;;;;21.60;7.50;;;;;;;;;;137222;1271;22657;-80
2024/02/14 02:59:35;;;;;;;24.10;8.60;;;;;;;;;;137156;1271;22562;-83
2024/02/14 03:02:38;;;;;;;30.80;9.30;;;;;;;;;;137711;1271;22418;-83
2024/02/14 03:05:39;;;;;;;21.80;8.00;;;;;;;;;;137223;1271;22964;-83
2024/02/14 03:08:40;;;;;;;18.80;8.70;;;;;;;;;;137189;1271;22377;-82
2024/02/14 03:11:41;;;;;;;17.30;8.30;;;;;;;;;;137538;1263;22546;-83
2024/02/14 03:14:43;;;;;;;18.90;8.00;;;;;;;;;;137466;1271;22433;-82
2024/02/14 03:17:45;;;;;;;15.40;8.70;;;;;;;;;;137139;1271;23013;-82
2024/02/14 03:20:46;;;;;;;19.30;8.80;;;;;;;;;;137157;1271;22573;-81
2024/02/14 03:23:47;;;;;;;27.70;8.40;;;;;;;;;;137574;1271;23106;-83
2024/02/14 03:26:51;;;;;;;19.60;8.60;;;;;;;;;;137127;1271;22302;-83
2024/02/14 03:29:52;;;;;;;15.80;8.20;;;;;;;;;;137090;1271;22580;-83
2024/02/14 03:32:53;;;;;;;28.30;8.20;;;;;;;;;;137535;1271;22272;-83
2024/02/14 03:35:54;;;;;;;33.00;8.60;;;;;;;;;;136903;1269;22542;-83
2024/02/14 03:38:55;;;;;;;21.10;8.20;;;;;;;;;;137018;1271;22131;-83
2024/02/14 03:41:56;;;;;;;22.90;8.10;;;;;;;;;;137642;1271;22543;-85
2024/02/14 03:45:02;;;;;;;37.00;8.50;;;;;;;;;;137058;1271;22306;-83
2024/02/14 03:48:04;;;;;;;19.30;8.10;;;;;;;;;;136970;1271;22287;-82
2024/02/14 03:51:05;;;;;;;23.50;8.30;;;;;;;;;;137360;1271;22618;-81
2024/02/14 03:54:07;;;;;;;36.10;8.70;;;;;;;;;;137387;1271;22233;-82
2024/02/14 03:57:08;;;;;;;43.60;8.80;;;;;;;;;;137015;1271;22208;-82
2024/02/14 04:00:10;;;;;;;17.20;7.70;;;;;;;;;;136901;1271;22540;-83
2024/02/14 04:03:12;;;;;;;24.90;8.40;;;;;;;;;;137488;1271;22255;-83
2024/02/14 04:06:13;;;;;;;17.10;8.40;;;;;;;;;;137091;1271;22429;-84
2024/02/14 04:09:15;;;;;;;18.80;9.40;;;;;;;;;;137195;1272;22707;-82
2024/02/14 04:12:16;;;;;;;20.10;9.40;;;;;;;;;;137491;1271;22427;-84
2024/02/14 04:15:17;;;;;;;158.00;13.80;;;;;;;;;;137065;1268;22574;-83
2024/02/14 04:18:18;;;;;;;32.30;9.30;;;;;;;;;;137221;1271;22218;-80
2024/02/14 04:21:19;;;;;;;31.60;10.10;;;;;;;;;;137470;1271;25296;-80
2024/02/14 04:24:21;;;;;;;20.10;9.40;;;;;;;;;;137149;1271;22227;-80
2024/02/14 04:27:22;;;;;;;17.30;9.60;;;;;;;;;;137043;1272;22413;-81
2024/02/14 04:30:23;;;;;;;17.50;9.60;;;;;;;;;;137448;1268;22485;-82
2024/02/14 04:33:25;;;;;;;25.50;8.90;;;;;;;;;;137447;1272;22394;-80
2024/02/14 04:36:26;;;;;;;22.20;9.50;;;;;;;;;;137310;1271;22280;-82
2024/02/14 04:39:27;;;;;;;20.00;9.50;;;;;;;;;;137249;1271;25440;-80
2024/02/14 04:42:28;;;;;;;20.90;10.10;;;;;;;;;;137545;1272;22541;-81
2024/02/14 04:45:29;;;;;;;37.60;9.90;;;;;;;;;;137146;1272;22395;-81
2024/02/14 04:48:31;;;;;;;28.00;9.90;;;;;;;;;;136918;1271;22624;-81
2024/02/14 04:51:32;;;;;;;28.40;10.80;;;;;;;;;;137647;1271;22795;-82
2024/02/14 04:54:33;;;;;;;39.20;10.70;;;;;;;;;;137202;1272;22491;-80
2024/02/14 04:57:35;;;;;;;23.80;10.70;;;;;;;;;;137331;1272;24302;-82
2024/02/14 05:00:38;;;;;;;21.20;10.00;;;;;;;;;;137699;1271;22091;-80
2024/02/14 05:03:39;;;;;;;21.40;10.90;;;;;;;;;;137653;1272;22239;-81
2024/02/14 05:06:41;;;;;;;18.90;10.20;;;;;;;;;;137643;1271;22282;-81
2024/02/14 05:09:44;;;;;;;21.00;8.90;;;;;;;;;;137485;1271;24234;-80
2024/02/14 05:12:45;;;;;;;19.60;9.70;;;;;;;;;;137589;1271;22508;-80
2024/02/14 05:15:46;;;;;;;38.40;10.30;;;;;;;;;;137544;1271;22419;-79
2024/02/14 05:18:48;;;;;;;28.60;9.20;;;;;;;;;;137691;1271;22313;-81
2024/02/14 05:21:49;;;;;;;18.20;10.10;;;;;;;;;;137723;1271;22231;-81
2024/02/14 05:24:50;;;;;;;20.80;10.10;;;;;;;;;;137639;1271;22397;-81
2024/02/14 05:27:51;;;;;;;21.60;10.00;;;;;;;;;;137631;1267;22267;-81
2024/02/14 05:30:52;;;;;;;19.60;10.10;;;;;;;;;;137560;1271;23308;-81
2024/02/14 05:33:53;;;;;;;17.00;9.10;;;;;;;;;;137659;1271;22244;-81
2024/02/14 05:36:55;;;;;;;20.20;9.90;;;;;;;;;;137683;1271;22212;-81
2024/02/14 05:39:56;;;;;;;78.70;12.20;;;;;;;;;;137627;1271;22182;-80
2024/02/14 05:42:57;;;;;;;26.10;10.50;;;;;;;;;;137662;1266;22233;-81
2024/02/14 05:45:58;;;;;;;19.40;9.90;;;;;;;;;;137331;1271;22234;-80
2024/02/14 05:48:59;;;;;;;26.50;10.00;;;;;;;;;;137471;1271;25267;-79
2024/02/14 05:52:00;;;;;;;135.20;13.50;;;;;;;;;;137688;1271;22224;-79
2024/02/14 05:55:03;;;;;;;31.50;11.10;;;;;;;;;;137100;1264;22227;-79
2024/02/14 05:58:04;;;;;;;21.30;10.70;;;;;;;;;;137481;1271;22166;-79
2024/02/14 06:01:06;;;;;;;23.10;10.90;;;;;;;;;;137445;1271;22181;-79
2024/02/14 06:04:07;;;;;;;89.20;13.00;;;;;;;;;;137021;1271;22411;-79
2024/02/14 06:07:10;;;;;;;24.20;11.10;;;;;;;;;;137654;1271;22203;-77
2024/02/14 06:10:11;;;;;;;35.90;11.50;;;;;;;;;;137671;1271;22075;-76
2024/02/14 06:13:12;;;;;;;62.70;14.40;;;;;;;;;;137652;1271;22205;-79
2024/02/14 06:16:14;;;;;;;21.30;11.90;;;;;;;;;;137673;1268;23001;-78
2024/02/14 06:19:15;;;;;;;29.10;13.30;;;;;;;;;;137657;1271;22278;-78
2024/02/14 06:22:16;;;;;;;52.50;13.10;;;;;;;;;;137619;1271;22225;-80
2024/02/14 06:25:17;;;;;;;22.50;12.70;;;;;;;;;;137637;1271;22457;-79
2024/02/14 06:28:18;;;;;;;31.20;13.30;;;;;;;;;;137709;1271;22826;-79
2024/02/14 06:31:19;;;;;;;26.80;14.00;;;;;;;;;;137676;1272;22718;-80
2024/02/14 06:34:21;;;;;;;329.10;24.30;;;;;;;;;;137445;1271;22213;-81
2024/02/14 06:37:22;;;;;;;40.30;18.30;;;;;;;;;;137613;1271;22407;-79
2024/02/14 06:40:23;;;;;;;59.80;21.30;;;;;;;;;;137742;1259;22212;-79
2024/02/14 06:43:24;;;;;;;61.40;24.20;;;;;;;;;;137625;1272;22230;-78
2024/02/14 06:46:25;;;;;;;72.30;25.90;;;;;;;;;;137191;1272;22279;-79
2024/02/14 06:49:26;;;;;;;57.70;28.10;;;;;;;;;;137441;1271;22553;-79
2024/02/14 06:52:27;;;;;;;64.00;27.30;;;;;;;;;;137289;1271;22421;-79
2024/02/14 06:55:30;;;;;;;61.10;27.50;;;;;;;;;;137701;1272;22343;-79
2024/02/14 06:58:31;;;;;;;79.00;29.10;;;;;;;;;;137145;1271;22547;-78
2024/02/14 07:01:32;;;;;;;150.20;29.70;;;;;;;;;;137519;1271;22766;-77
2024/02/14 07:04:33;;;;;;;50.30;25.50;;;;;;;;;;137670;1269;22886;-80
2024/02/14 07:07:35;;;;;;;43.20;24.00;;;;;;;;;;137731;1271;22212;-79
2024/02/14 07:10:37;;;;;;;49.60;23.50;;;;;;;;;;137663;1272;22304;-79
2024/02/14 07:13:38;;;;;;;40.70;22.80;;;;;;;;;;137710;1264;22245;-79
2024/02/14 07:16:39;;;;;;;40.60;22.40;;;;;;;;;;137653;1271;22274;-80
2024/02/14 07:19:42;;;;;;;55.10;22.60;;;;;;;;;;137659;1271;22041;-79
2024/02/14 07:22:45;;;;;;;48.50;20.80;;;;;;;;;;137651;1272;22384;-80
2024/02/14 07:25:46;;;;;;;45.20;20.00;;;;;;;;;;137672;1271;22277;-79
2024/02/14 07:28:50;;;;;;;52.80;23.90;;;;;;;;;;136846;1271;22541;-78
2024/02/14 07:31:51;;;;;;;102.80;19.60;;;;;;;;;;137532;1272;22224;-78
2024/02/14 07:34:52;;;;;;;31.80;16.30;;;;;;;;;;137190;1271;22254;-78
2024/02/14 07:37:53;;;;;;;28.90;14.90;;;;;;;;;;137487;1272;22536;-77
2024/02/14 07:40:54;;;;;;;27.30;15.50;;;;;;;;;;137662;1271;22263;-78
2024/02/14 07:43:56;;;;;;;36.50;15.10;;;;;;;;;;137530;1272;22437;-78
2024/02/14 07:46:58;;;;;;;44.30;16.80;;;;;;;;;;137334;1272;22263;-78
2024/02/14 07:49:59;;;;;;;25.70;14.80;;;;;;;;;;137673;1271;22218;-77
2024/02/14 07:53:00;;;;;;;42.10;14.70;;;;;;;;;;137254;1272;22250;-80
2024/02/14 07:56:01;;;;;;;59.10;14.00;;;;;;;;;;137451;1272;22399;-78
2024/02/14 07:59:03;;;;;;;175.20;21.10;;;;;;;;;;137478;1269;23120;-80
2024/02/14 08:02:04;;;;;;;28.20;13.30;;;;;;;;;;137471;1271;22350;-79
2024/02/14 08:05:05;;;;;;;19.50;13.70;;;;;;;;;;137716;1271;22206;-79
2024/02/14 08:08:07;;;;;;;30.20;12.30;;;;;;;;;;137670;1272;22411;-79
2024/02/14 08:11:08;;;;;;;29.30;13.40;;;;;;;;;;137634;1271;22204;-79
2024/02/14 08:14:09;;;;;;;27.90;12.80;;;;;;;;;;137232;1271;22620;-79
2024/02/14 08:17:10;;;;;;;23.90;11.40;;;;;;;;;;137145;1272;22603;-79
2024/02/14 08:20:11;;;;;;;36.60;11.30;;;;;;;;;;137625;1269;22324;-77
2024/02/14 08:23:12;;;;;;;60.80;14.20;;;;;;;;;;137629;1272;22207;-80
2024/02/14 08:26:14;;;;;;;28.30;11.70;;;;;;;;;;137635;1272;22724;-79
2024/02/14 08:29:15;;;;;;;31.70;14.10;;;;;;;;;;137644;1260;22386;-79
2024/02/14 08:32:16;;;;;;;21.20;8.30;;;;;;;;;;137595;1272;22200;-79
2024/02/14 08:35:17;;;;;;;24.70;7.70;;;;;;;;;;137664;1272;22356;-79
2024/02/14 08:38:18;;;;;;;46.70;8.50;;;;;;;;;;137108;1271;22565;-79
2024/02/14 08:41:19;;;;;;;28.00;8.20;;;;;;;;;;137590;1272;22222;-79
2024/02/14 08:44:20;;;;;;;13.70;7.40;;;;;;;;;;137309;1271;22428;-78
2024/02/14 08:47:21;;;;;;;24.90;7.50;;;;;;;;;;137140;1270;25111;-78
2024/02/14 08:50:22;;;;;;;29.00;7.90;;;;;;;;;;137663;1272;22260;-78
2024/02/14 08:53:24;;;;;;;28.10;8.10;;;;;;;;;;137251;1271;22669;-79
2024/02/14 08:56:25;;;;;;;19.30;6.90;;;;;;;;;;137587;1262;22987;-79
2024/02/14 08:59:26;;;;;;;26.30;7.70;;;;;;;;;;137633;1271;22770;-78
2024/02/14 09:02:28;;;;;;;18.30;7.10;;;;;;;;;;137636;1271;22649;-78
2024/02/14 09:05:29;;;;;;;13.60;6.60;;;;;;;;;;137689;1271;22329;-78
2024/02/14 09:08:30;;;;;;;23.80;7.90;;;;;;;;;;137676;1272;22134;-78
2024/02/14 09:11:32;;;;;;;19.30;7.50;;;;;;;;;;137593;1271;22174;-79
2024/02/14 09:14:36;;;;;;;25.50;8.40;;;;;;;;;;137624;1272;22214;-78
2024/02/14 09:17:38;;;;;;;21.90;6.00;;;;;;;;;;137641;1269;22624;-78
2024/02/14 09:20:39;;;;;;;16.20;6.30;;;;;;;;;;137630;1258;22226;-80
2024/02/14 09:23:40;;;;;;;11.40;6.40;;;;;;;;;;137669;1271;22583;-78
2024/02/14 09:26:42;;;;;;;24.20;7.60;;;;;;;;;;137664;1271;22286;-78
2024/02/14 09:29:44;;;;;;;13.20;5.50;;;;;;;;;;137622;1267;22783;-80
2024/02/14 09:32:47;;;;;;;20.10;6.20;;;;;;;;;;137627;1272;22233;-79
2024/02/14 09:35:48;;;;;;;16.10;6.80;;;;;;;;;;137681;1272;22354;-79
2024/02/14 09:38:49;;;;;;;17.10;5.80;;;;;;;;;;137712;1272;22324;-80
2024/02/14 09:41:51;;;;;;;20.00;7.60;;;;;;;;;;137624;1271;22347;-79
2024/02/14 09:44:52;;;;;;;22.90;7.50;;;;;;;;;;137673;1271;22672;-79
2024/02/14 09:47:53;;;;;;;30.20;7.40;;;;;;;;;;137677;1268;22124;-80
2024/02/14 09:50:54;;;;;;;43.60;7.80;;;;;;;;;;137646;1270;22220;-80
2024/02/14 09:53:55;;;;;;;22.70;8.30;;;;;;;;;;137648;1271;22287;-78
2024/02/14 09:56:57;;;;;;;63.60;10.00;;;;;;;;;;137713;1272;22274;-79
2024/02/14 09:59:58;;;;;;;58.30;8.60;;;;;;;;;;137656;1272;22277;-79
2024/02/14 10:02:59;;;;;;;28.00;6.80;;;;;;;;;;137664;1272;22234;-80
2024/02/14 10:06:01;;;;;;;19.10;6.50;;;;;;;;;;137592;1271;22310;-80
2024/02/14 10:09:02;;;;;;;32.50;7.70;;;;;;;;;;137590;1272;22276;-80
2024/02/14 10:12:03;;;;;;;23.10;6.80;;;;;;;;;;137654;1271;22643;-80
2024/02/14 10:15:06;;;;;;;15.30;6.10;;;;;;;;;;137276;1271;22211;-80
2024/02/14 10:18:09;;;;;;;27.50;7.70;;;;;;;;;;137724;1271;22115;-79
2024/02/14 10:21:10;;;;;;;33.00;7.30;;;;;;;;;;137488;1271;22408;-80
2024/02/14 10:24:11;;;;;;;20.50;6.80;;;;;;;;;;137756;1271;22193;-78
2024/02/14 10:27:12;;;;;;;27.10;6.70;;;;;;;;;;137732;1271;22179;-79
2024/02/14 10:30:14;;;;;;;25.70;7.00;;;;;;;;;;137677;1271;22205;-78
2024/02/14 10:33:15;;;;;;;29.90;7.70;;;;;;;;;;137527;1272;22311;-78
2024/02/14 10:36:17;;;;;;;27.30;6.80;;;;;;;;;;137620;1271;22289;-78
2024/02/14 10:39:18;;;;;;;14.70;6.30;;;;;;;;;;137671;1269;22235;-79
2024/02/14 10:42:19;;;;;;;19.00;6.60;;;;;;;;;;137655;1271;22975;-78
2024/02/14 10:45:20;;;;;;;23.00;7.20;;;;;;;;;;137717;1271;22258;-79
2024/02/14 10:48:22;;;;;;;67.80;8.80;;;;;;;;;;137666;1271;22192;-79
2024/02/14 10:51:23;;;;;;;19.60;7.20;;;;;;;;;;137638;1272;22298;-79
2024/02/14 10:54:24;;;;;;;27.50;7.20;;;;;;;;;;137646;1269;22637;-79
2024/02/14 10:57:25;;;;;;;29.30;8.00;;;;;;;;;;137710;1271;22292;-78
2024/02/14 11:00:28;;;;;;;31.80;8.00;;;;;;;;;;137675;1271;22350;-78
2024/02/14 11:03:30;;;;;;;28.10;9.40;;;;;;;;;;137749;1271;22268;-79
2024/02/14 11:06:31;;;;;;;26.00;8.80;;;;;;;;;;137724;1271;22247;-79
2024/02/14 11:09:33;;;;;;;27.00;9.70;;;;;;;;;;137676;1271;22243;-79
2024/02/14 11:12:36;;;;;;;17.00;9.10;;;;;;;;;;137751;1271;22280;-78
2024/02/14 11:15:37;;;;;;;34.60;9.90;;;;;;;;;;137684;1271;22271;-78
2024/02/14 11:18:38;;;;;;;23.80;8.90;;;;;;;;;;137640;1272;22764;-79
2024/02/14 11:21:41;;;;;;;24.60;9.80;;;;;;;;;;137673;1271;22364;-77
2024/02/14 11:24:42;;;;;;;29.10;10.30;;;;;;;;;;137661;1271;22312;-79
2024/02/14 11:27:43;;;;;;;20.50;10.40;;;;;;;;;;137663;1271;22773;-77
2024/02/14 11:30:44;;;;;;;25.90;9.90;;;;;;;;;;137683;1271;22197;-78
2024/02/14 11:33:46;;;;;;;18.30;9.30;;;;;;;;;;137738;1267;22198;-78
2024/02/14 11:36:47;;;;;;;36.60;11.50;;;;;;;;;;137704;1271;22114;-78
2024/02/14 11:39:48;;;;;;;32.60;12.60;;;;;;;;;;137631;1271;22245;-78
2024/02/14 11:42:49;;;;;;;17.70;10.40;;;;;;;;;;137667;1271;22202;-77
2024/02/14 11:45:52;;;;;;;24.30;9.10;;;;;;;;;;137664;1271;22293;-78
2024/02/14 11:48:53;;;;;;;46.70;8.40;;;;;;;;;;137705;1272;22260;-77
2024/02/14 11:51:54;;;;;;;38.20;8.50;;;;;;;;;;137645;1272;22162;-76
2024/02/14 11:54:57;;;;;;;23.80;8.60;;;;;;;;;;137706;1271;22197;-77
2024/02/14 11:57:58;;;;;;;26.60;8.10;;;;;;;;;;137647;1272;22201;-76
2024/02/14 12:00:59;;;;;;;19.70;8.60;;;;;;;;;;137734;1271;22223;-78
2024/02/14 12:04:00;;;;;;;28.40;8.90;;;;;;;;;;137731;1271;22800;-78
2024/02/14 12:07:02;;;;;;;22.00;8.30;;;;;;;;;;137700;1271;22420;-77
2024/02/14 12:10:03;;;;;;;19.20;8.60;;;;;;;;;;137663;1271;22320;-76
2024/02/14 12:13:05;;;;;;;29.80;8.50;;;;;;;;;;137749;1271;22157;-77
2024/02/14 12:16:07;;;;;;;48.00;9.50;;;;;;;;;;137691;1264;22210;-77
2024/02/14 12:19:09;;;;;;;22.10;8.30;;;;;;;;;;137696;1271;22225;-78
2024/02/14 12:22:11;;;;;;;27.50;9.20;;;;;;;;;;137754;1272;22163;-78
2024/02/14 12:25:13;;;;;;;35.30;9.30;;;;;;;;;;137719;1271;22213;-78
2024/02/14 12:28:15;;;;;;;139.00;12.50;;;;;;;;;;137700;1272;22383;-77
2024/02/14 12:31:16;;;;;;;36.10;8.90;;;;;;;;;;137687;1272;22212;-78
2024/02/14 12:34:18;;;;;;;94.00;10.60;;;;;;;;;;137636;1271;23161;-77
2024/02/14 12:37:19;;;;;;;66.90;10.30;;;;;;;;;;137643;1271;22348;-76
2024/02/14 12:40:20;;;;;;;93.30;12.80;;;;;;;;;;137690;1271;22301;-77
2024/02/14 12:43:21;;;;;;;72.90;9.80;;;;;;;;;;137653;1271;22232;-78
2024/02/14 12:46:22;;;;;;;44.60;8.50;;;;;;;;;;137665;1271;22096;-77
2024/02/14 12:49:25;;;;;;;43.30;9.30;;;;;;;;;;137421;1271;260825;-77
2024/02/14 12:52:27;;;;;;;36.20;8.90;;;;;;;;;;137638;1271;22251;-77
2024/02/14 12:55:28;;;;;;;82.60;10.40;;;;;;;;;;137688;1271;22235;-77
2024/02/14 12:58:30;;;;;;;52.50;8.90;;;;;;;;;;137639;1271;22711;-78
2024/02/14 13:01:31;;;;;;;149.70;13.40;;;;;;;;;;137693;1271;22279;-78
2024/02/14 13:04:33;;;;;;;74.10;10.20;;;;;;;;;;137479;1271;22360;-78
2024/02/14 13:07:35;;;;;;;37.70;8.00;;;;;;;;;;137608;1271;22250;-78
2024/02/14 13:10:36;;;;;;;35.30;7.60;;;;;;;;;;137663;1271;22870;-78
2024/02/14 13:13:37;;;;;;;70.80;9.30;;;;;;;;;;137712;1271;22636;-77
2024/02/14 13:16:38;;;;;;;79.70;10.80;;;;;;;;;;137703;1271;22333;-76
2024/02/14 13:19:40;;;;;;;34.10;7.20;;;;;;;;;;137658;1271;22841;-78
2024/02/14 13:22:41;;;;;;;31.50;8.10;;;;;;;;;;137705;1271;22222;-77
2024/02/14 13:25:42;;;;;;;24.10;8.30;;;;;;;;;;137708;1271;22160;-77
2024/02/14 13:28:43;;;;;;;21.70;7.20;;;;;;;;;;137654;1271;22299;-78
2024/02/14 13:31:44;;;;;;;51.50;8.60;;;;;;;;;;137677;1271;22795;-82
2024/02/14 13:34:45;;;;;;;152.50;13.30;;;;;;;;;;137674;1271;22246;-81
2024/02/14 13:37:46;;;;;;;20.10;8.20;;;;;;;;;;137644;1271;22250;-80
2024/02/14 13:40:47;;;;;;;78.90;10.00;;;;;;;;;;137692;1271;22899;-81
2024/02/14 13:43:49;;;;;;;28.00;7.30;;;;;;;;;;137631;1271;22319;-81
2024/02/14 13:46:52;;;;;;;147.40;14.20;;;;;;;;;;137628;1271;22907;-80
2024/02/14 13:49:53;;;;;;;101.40;10.50;;;;;;;;;;137615;1271;22830;-80
2024/02/14 13:52:54;;;;;;;25.70;8.30;;;;;;;;;;137605;1259;22165;-79
2024/02/14 13:55:56;;;;;;;70.10;9.40;;;;;;;;;;137675;1271;22167;-80
2024/02/14 13:58:57;;;;;;;90.50;11.60;;;;;;;;;;137639;1271;22329;-81
2024/02/14 14:01:58;;;;;;;32.10;8.10;;;;;;;;;;137714;1271;22197;-81
2024/02/14 14:05:00;;;;;;;170.90;15.20;;;;;;;;;;137721;1271;22225;-80
2024/02/14 14:08:08;;;;;;;165.00;13.80;;;;;;;;;;137687;1271;22348;-82
2024/02/14 14:11:09;;;;;;;60.30;9.40;;;;;;;;;;137688;1267;22195;-78
2024/02/14 14:14:15;;;;;;;69.30;9.60;;;;;;;;;;137659;1271;22435;-80
2024/02/14 14:17:16;;;;;;;224.30;18.10;;;;;;;;;;137653;1271;22283;-80
2024/02/14 14:20:18;;;;;;;58.60;10.60;;;;;;;;;;137650;1271;22240;-82
2024/02/14 14:23:20;;;;;;;128.60;14.40;;;;;;;;;;137646;1271;22268;-80
2024/02/14 14:26:21;;;;;;;34.10;8.80;;;;;;;;;;137582;1271;22299;-80
2024/02/14 14:29:22;;;;;;;31.10;8.40;;;;;;;;;;137638;1271;22993;-79
2024/02/14 14:32:23;;;;;;;43.60;8.60;;;;;;;;;;137629;1271;22201;-80
2024/02/14 14:35:24;;;;;;;36.60;8.90;;;;;;;;;;137653;1264;22099;-80
2024/02/14 14:38:26;;;;;;;32.00;10.50;;;;;;;;;;137678;1271;22750;-80
2024/02/14 14:41:28;;;;;;;34.70;11.60;;;;;;;;;;137719;1271;22685;-81
2024/02/14 14:44:30;;;;;;;36.00;11.40;;;;;;;;;;137644;1271;22214;-76
2024/02/14 14:47:31;;;;;;;121.70;14.10;;;;;;;;;;137690;1271;22259;-80
2024/02/14 14:50:32;;;;;;;52.80;11.70;;;;;;;;;;137737;1271;22414;-81
2024/02/14 14:53:35;;;;;;;43.80;10.50;;;;;;;;;;137125;1271;22451;-80
2024/02/14 14:56:36;;;;;;;109.10;14.50;;;;;;;;;;137739;1271;22801;-79
2024/02/14 14:59:37;;;;;;;173.20;18.10;;;;;;;;;;137703;1271;22384;-79
2024/02/14 15:02:40;;;;;;;34.80;9.30;;;;;;;;;;137742;1271;22259;-80
2024/02/14 15:05:41;;;;;;;17.40;8.90;;;;;;;;;;137569;1271;22110;-81
2024/02/14 15:08:43;;;;;;;70.80;11.00;;;;;;;;;;137626;1271;22820;-81
2024/02/14 15:11:45;;;;;;;111.30;14.90;;;;;;;;;;137401;1271;22458;-82
2024/02/14 15:14:46;;;;;;;18.30;7.90;;;;;;;;;;137547;1271;22469;-81
2024/02/14 15:17:47;;;;;;;14.20;7.50;;;;;;;;;;136987;1271;22688;-82
2024/02/14 15:20:48;;;;;;;14.20;7.90;;;;;;;;;;137290;1271;22441;-82
2024/02/14 15:23:50;;;;;;;158.20;14.40;;;;;;;;;;137597;1268;22555;-81
2024/02/14 15:26:59;;;;;;;16.50;8.80;;;;;;;;;;137231;1271;22472;-81
2024/02/14 15:33:23;;;;;;;13.80;8.20;;;;;;;;;;137530;1271;22585;-80
2024/02/14 15:36:24;;;;;;;19.50;9.50;;;;;;;;;;137703;1271;22250;-80
2024/02/14 15:39:25;;;;;;;13.80;8.30;;;;;;;;;;137525;1271;22977;-81
2024/02/14 15:42:27;;;;;;;693.50;47.50;;;;;;;;;;137335;1271;22717;-81
2024/02/14 15:45:28;;;;;;;225.70;19.50;;;;;;;;;;137626;1271;22166;-80
2024/02/14 15:48:29;;;;;;;25.80;10.30;;;;;;;;;;137367;1271;22330;-81
2024/02/14 15:51:30;;;;;;;29.30;11.20;;;;;;;;;;137422;1271;22992;-80
2024/02/14 15:54:31;;;;;;;18.00;10.10;;;;;;;;;;137725;1271;22842;-81
2024/02/14 15:57:32;;;;;;;151.00;14.90;;;;;;;;;;137441;1271;22310;-82
2024/02/14 16:00:34;;;;;;;26.70;9.20;;;;;;;;;;137403;1271;22261;-81
2024/02/14 16:03:35;;;;;;;18.80;9.20;;;;;;;;;;137697;1271;22349;-79
2024/02/14 16:06:36;;;;;;;18.80;9.20;;;;;;;;;;137106;1271;22180;-82
2024/02/14 16:09:37;;;;;;;31.80;9.90;;;;;;;;;;137586;1271;22198;-83
2024/02/14 16:12:39;;;;;;;34.50;9.10;;;;;;;;;;137575;1271;22546;-79
2024/02/14 16:15:41;;;;;;;19.20;10.10;;;;;;;;;;137525;1271;22416;-82
2024/02/14 16:18:42;;;;;;;111.70;13.60;;;;;;;;;;137442;1271;22098;-80
2024/02/14 16:21:45;;;;;;;80.80;11.10;;;;;;;;;;137595;1271;22461;-80
2024/02/14 16:24:48;;;;;;;48.30;11.50;;;;;;;;;;137186;1271;22243;-82
2024/02/14 16:27:50;;;;;;;40.30;10.70;;;;;;;;;;137725;1271;22193;-81
2024/02/14 16:30:51;;;;;;;33.40;10.50;;;;;;;;;;137697;1271;22115;-79
2024/02/14 16:33:52;;;;;;;317.40;19.70;;;;;;;;;;137702;1271;22215;-81
2024/02/14 16:36:55;;;;;;;185.90;16.00;;;;;;;;;;137714;1271;22162;-82
2024/02/14 16:39:56;;;;;;;30.60;11.20;;;;;;;;;;137685;1271;22281;-83
2024/02/14 16:42:58;;;;;;;21.70;10.50;;;;;;;;;;137614;1271;22398;-80
2024/02/14 16:45:59;;;;;;;17.40;10.50;;;;;;;;;;137264;1271;22262;-82
2024/02/14 16:49:03;;;;;;;26.00;10.90;;;;;;;;;;137096;1271;22619;-81
2024/02/14 16:52:05;;;;;;;64.00;12.00;;;;;;;;;;137518;1271;24203;-83
2024/02/14 16:55:06;;;;;;;18.50;10.50;;;;;;;;;;137140;1271;22627;-82
2024/02/14 16:58:07;;;;;;;36.60;10.80;;;;;;;;;;137375;1271;25721;-79
2024/02/14 17:01:08;;;;;;;23.90;11.00;;;;;;;;;;137651;1271;22244;-78
2024/02/14 17:04:09;;;;;;;34.70;10.60;;;;;;;;;;137286;1271;22405;-80
2024/02/14 17:07:10;;;;;;;39.50;11.30;;;;;;;;;;137257;1267;22456;-80
2024/02/14 17:10:11;;;;;;;19.10;10.50;;;;;;;;;;137740;1271;22098;-80
2024/02/14 17:13:14;;;;;;;20.90;10.10;;;;;;;;;;137698;1271;22237;-80
2024/02/14 17:16:16;;;;;;;19.30;11.00;;;;;;;;;;137255;1271;22431;-80
2024/02/14 17:19:17;;;;;;;19.40;10.80;;;;;;;;;;137710;1271;22428;-80
2024/02/14 17:22:18;;;;;;;19.10;11.30;;;;;;;;;;137676;1271;22513;-80
2024/02/14 17:25:19;;;;;;;22.50;11.60;;;;;;;;;;137017;1271;22721;-80
2024/02/14 17:28:20;;;;;;;25.50;13.40;;;;;;;;;;137482;1264;22559;-79
2024/02/14 17:31:21;;;;;;;18.60;12.10;;;;;;;;;;137672;1271;22861;-80